createdAt,value
2022-08-03T00:00:33.699Z,13.38
2022-08-03T00:03:02.613Z,12.80
2022-08-03T00:05:33.267Z,13.63
2022-08-03T00:08:03.070Z,12.23
2022-08-03T00:10:34.195Z,12.63
2022-08-03T00:13:02.311Z,12.57
2022-08-03T00:15:32.515Z,12.68
2022-08-03T00:18:00.693Z,11.43
2022-08-03T00:20:29.054Z,12.10
2022-08-03T00:22:58.392Z,12.00
2022-08-03T00:25:27.040Z,12.65
2022-08-03T00:27:55.245Z,12.23
2022-08-03T00:30:26.912Z,12.63
2022-08-03T00:33:00.855Z,11.77
2022-08-03T00:35:37.166Z,12.07
2022-08-03T00:38:17.879Z,12.05
2022-08-03T00:40:46.291Z,11.82
2022-08-03T00:43:15.970Z,12.02
2022-08-03T00:45:44.932Z,11.85
2022-08-03T00:48:29.820Z,10.98
2022-08-03T00:51:02.221Z,12.73
2022-08-03T00:53:31.927Z,12.55
2022-08-03T00:56:00.383Z,11.90
2022-08-03T00:58:28.938Z,12.00
2022-08-03T01:00:57.256Z,12.80
2022-08-03T01:03:25.691Z,13.32
2022-08-03T01:06:06.708Z,11.98
2022-08-03T01:09:01.407Z,11.90
2022-08-03T01:12:00.037Z,12.18
2022-08-03T01:14:59.019Z,12.23
2022-08-03T01:17:41.195Z,12.60
2022-08-03T01:20:15.586Z,12.90
2022-08-03T01:23:23.711Z,12.50
2022-08-03T01:26:07.530Z,12.07
2022-08-03T01:28:47.275Z,12.68
2022-08-03T01:31:21.485Z,12.70
2022-08-03T01:33:56.821Z,12.02
2022-08-03T01:36:32.729Z,12.80
2022-08-03T01:39:05.470Z,12.77
2022-08-03T01:41:39.316Z,14.10
2022-08-03T01:44:28.488Z,14.52
2022-08-03T01:47:01.533Z,13.85
2022-08-03T01:49:32.683Z,14.10
2022-08-03T01:52:15.116Z,14.23
2022-08-03T01:54:46.030Z,14.63
2022-08-03T01:57:18.079Z,14.88
2022-08-03T01:59:49.094Z,14.95
2022-08-03T02:02:33.138Z,15.73
2022-08-03T02:05:05.464Z,15.30
2022-08-03T02:07:41.855Z,16.25
2022-08-03T02:10:13.524Z,16.50
2022-08-03T02:12:46.104Z,16.83
2022-08-03T02:15:17.323Z,16.27
2022-08-03T02:17:48.322Z,16.40
2022-08-03T02:20:17.163Z,15.93
2022-08-03T02:22:47.136Z,17.50
2022-08-03T02:25:18.299Z,17.25
2022-08-03T02:28:08.759Z,18.15
2022-08-03T02:30:39.784Z,18.55
2022-08-03T02:33:12.853Z,18.33
2022-08-03T02:35:43.709Z,19.45
2022-08-03T02:38:15.673Z,20.73
2022-08-03T02:40:45.460Z,18.92
2022-08-03T02:43:19.429Z,19.08
2022-08-03T02:45:51.134Z,17.42
2022-08-03T02:48:23.824Z,18.83
2022-08-03T02:50:55.248Z,17.58
2022-08-03T02:53:25.115Z,19.20
2022-08-03T02:55:55.884Z,18.63
2022-08-03T02:58:26.204Z,18.77
2022-08-03T03:00:55.593Z,19.30
2022-08-03T03:03:25.655Z,21.27
2022-08-03T03:05:57.977Z,19.15
2022-08-03T03:08:29.251Z,20.33
2022-08-03T03:11:00.267Z,20.10
2022-08-03T03:13:33.314Z,19.88
2022-08-03T03:16:04.555Z,19.33
2022-08-03T03:18:34.899Z,19.92
2022-08-03T03:21:05.289Z,19.80
2022-08-03T03:23:37.013Z,19.45
2022-08-03T03:26:06.695Z,19.23
2022-08-03T03:28:37.511Z,19.63
2022-08-03T03:31:08.046Z,19.33
2022-08-03T03:33:37.543Z,20.17
2022-08-03T03:36:07.129Z,19.60
2022-08-03T03:38:35.628Z,21.08
2022-08-03T03:41:06.354Z,20.17
2022-08-03T03:43:34.808Z,18.67
2022-08-03T03:46:03.631Z,19.30
2022-08-03T03:48:33.693Z,20.27
2022-08-03T03:51:02.914Z,21.48
2022-08-03T03:53:31.266Z,21.05
2022-08-03T03:56:02.533Z,19.52
2022-08-03T03:58:33.030Z,20.10
2022-08-03T20:10:11.573Z,3.90
2022-08-03T20:12:41.181Z,3.55
2022-08-03T20:15:11.345Z,6.03
2022-08-03T20:17:54.468Z,3.28
2022-08-03T20:20:37.374Z,3.50
2022-08-03T20:23:12.612Z,3.85
2022-08-03T20:25:57.261Z,2.60
2022-08-03T20:28:52.314Z,4.75
2022-08-03T20:31:32.206Z,4.20
2022-08-03T20:34:06.750Z,2.92
2022-08-03T20:36:35.064Z,2.60
2022-08-03T20:39:07.688Z,5.57
2022-08-03T20:41:37.176Z,5.93
2022-08-03T20:44:06.845Z,4.55
2022-08-03T20:46:50.197Z,5.47
2022-08-03T20:49:45.942Z,4.13
2022-08-03T20:52:18.400Z,3.78
2022-08-03T20:54:53.091Z,5.65
2022-08-03T20:57:28.391Z,3.10
2022-08-03T21:00:13.594Z,5.53
2022-08-03T21:03:09.860Z,4.85
2022-08-03T21:06:09.695Z,4.22
2022-08-03T21:08:47.020Z,5.22
2022-08-03T21:11:19.531Z,4.05
2022-08-03T21:14:05.440Z,5.53
2022-08-03T21:16:40.376Z,3.33
2022-08-03T21:19:08.721Z,2.38
2022-08-03T21:21:42.402Z,3.85
2022-08-03T21:24:13.775Z,5.18
2022-08-03T21:26:43.207Z,4.07
2022-08-03T21:29:14.350Z,4.32
2022-08-03T21:31:44.300Z,4.40
2022-08-03T21:34:12.863Z,3.60
2022-08-03T21:36:42.270Z,6.90
2022-08-03T21:39:11.390Z,4.90
2022-08-03T21:41:40.882Z,8.35
2022-08-03T21:44:12.920Z,6.18
2022-08-03T21:46:53.971Z,5.68
2022-08-03T21:50:07.321Z,6.28
2022-08-03T21:52:47.564Z,6.43
2022-08-03T21:55:20.856Z,5.20
2022-08-03T21:57:54.312Z,6.85
2022-08-03T22:00:24.081Z,6.30
2022-08-03T22:02:57.417Z,6.60
2022-08-03T22:05:42.459Z,8.35
2022-08-03T22:08:14.375Z,8.65
2022-08-03T22:10:46.636Z,7.80
2022-08-03T22:13:43.113Z,7.70
2022-08-03T22:16:07.635Z,9.10
2022-08-03T22:18:38.170Z,6.68
2022-08-03T22:21:08.880Z,7.00
2022-08-03T22:23:46.206Z,8.57
2022-08-03T22:26:34.729Z,7.78
2022-08-03T22:29:08.774Z,7.35
2022-08-03T22:32:51.945Z,7.07
2022-08-03T22:35:21.742Z,7.15
2022-08-03T22:37:54.015Z,9.73
2022-08-03T22:40:24.015Z,6.95
2022-08-03T22:48:04.525Z,8.73
2022-08-03T22:50:34.061Z,10.77
2022-08-03T22:53:03.036Z,8.80
2022-08-03T22:55:32.330Z,8.80
2022-08-03T22:58:00.783Z,9.05
2022-08-03T23:00:29.750Z,9.68
2022-08-03T23:03:02.932Z,8.20
2022-08-03T23:06:01.900Z,9.63
2022-08-03T23:08:26.645Z,8.45
2022-08-03T23:11:02.355Z,10.07
2022-08-03T23:13:33.472Z,9.38
2022-08-03T23:16:05.145Z,9.68
2022-08-03T23:18:38.028Z,9.88
2022-08-03T23:21:11.142Z,9.80
2022-08-03T23:23:44.462Z,10.15
2022-08-03T23:26:14.202Z,10.00
2022-08-03T23:28:47.274Z,10.00
2022-08-03T23:31:17.352Z,10.23
2022-08-03T23:33:46.271Z,10.75
2022-08-03T23:36:30.854Z,10.32
2022-08-03T23:39:02.891Z,16.10
2022-08-03T23:41:34.116Z,12.02
2022-08-03T23:44:04.306Z,10.98
2022-08-03T23:46:33.591Z,11.45
2022-08-03T23:49:02.220Z,12.48
2022-08-03T23:51:53.266Z,11.07
2022-08-03T23:54:45.660Z,12.52
2022-08-03T23:57:47.470Z,9.90
